sensor_id;sensor_type;location;lat;lon;timestamp;P1;durP1;ratioP1;P2;durP2;ratioP2
5813;SDS011;2933;52.302;8.134;2022-08-19T00:01:40;7.07;;;5.37;;
5813;SDS011;2933;52.302;8.134;2022-08-19T00:06:43;7.60;;;5.90;;
5813;SDS011;2933;52.302;8.134;2022-08-19T00:11:47;7.53;;;5.97;;
5813;SDS011;2933;52.302;8.134;2022-08-19T00:16:49;7.80;;;5.87;;
5813;SDS011;2933;52.302;8.134;2022-08-19T00:21:54;7.63;;;6.53;;
5813;SDS011;2933;52.302;8.134;2022-08-19T00:26:58;9.63;;;6.20;;
5813;SDS011;2933;52.302;8.134;2022-08-19T00:32:01;8.50;;;5.73;;
5813;SDS011;2933;52.302;8.134;2022-08-19T00:37:03;8.43;;;6.43;;
5813;SDS011;2933;52.302;8.134;2022-08-19T00:42:06;9.13;;;5.70;;
5813;SDS011;2933;52.302;8.134;2022-08-19T00:47:08;10.83;;;6.90;;
5813;SDS011;2933;52.302;8.134;2022-08-19T00:52:12;10.53;;;6.43;;
5813;SDS011;2933;52.302;8.134;2022-08-19T00:57:18;9.17;;;5.50;;
5813;SDS011;2933;52.302;8.134;2022-08-19T01:02:27;7.17;;;6.00;;
5813;SDS011;2933;52.302;8.134;2022-08-19T01:07:30;7.57;;;5.50;;
5813;SDS011;2933;52.302;8.134;2022-08-19T01:12:33;6.30;;;5.47;;
5813;SDS011;2933;52.302;8.134;2022-08-19T01:17:36;6.17;;;5.57;;
5813;SDS011;2933;52.302;8.134;2022-08-19T01:22:43;9.27;;;6.10;;
5813;SDS011;2933;52.302;8.134;2022-08-19T01:27:47;7.40;;;5.07;;
5813;SDS011;2933;52.302;8.134;2022-08-19T01:32:50;6.43;;;5.37;;
5813;SDS011;2933;52.302;8.134;2022-08-19T01:37:56;8.37;;;6.33;;
5813;SDS011;2933;52.302;8.134;2022-08-19T01:42:59;10.37;;;6.27;;
5813;SDS011;2933;52.302;8.134;2022-08-19T01:48:02;7.50;;;6.07;;
5813;SDS011;2933;52.302;8.134;2022-08-19T01:53:06;7.37;;;6.20;;
5813;SDS011;2933;52.302;8.134;2022-08-19T01:58:11;12.53;;;7.70;;
5813;SDS011;2933;52.302;8.134;2022-08-19T02:03:15;8.83;;;6.70;;
5813;SDS011;2933;52.302;8.134;2022-08-19T02:08:19;10.40;;;6.63;;
5813;SDS011;2933;52.302;8.134;2022-08-19T02:13:20;10.40;;;6.60;;
5813;SDS011;2933;52.302;8.134;2022-08-19T02:18:23;8.53;;;6.07;;
5813;SDS011;2933;52.302;8.134;2022-08-19T02:23:27;12.20;;;7.00;;
5813;SDS011;2933;52.302;8.134;2022-08-19T02:28:29;8.70;;;7.03;;
5813;SDS011;2933;52.302;8.134;2022-08-19T02:33:32;7.40;;;6.63;;
5813;SDS011;2933;52.302;8.134;2022-08-19T02:38:35;7.80;;;6.83;;
5813;SDS011;2933;52.302;8.134;2022-08-19T02:43:37;10.63;;;7.00;;
5813;SDS011;2933;52.302;8.134;2022-08-19T02:48:40;9.20;;;6.80;;
5813;SDS011;2933;52.302;8.134;2022-08-19T02:53:43;9.33;;;7.30;;
5813;SDS011;2933;52.302;8.134;2022-08-19T02:58:44;7.97;;;6.20;;
5813;SDS011;2933;52.302;8.134;2022-08-19T03:03:48;12.60;;;7.50;;
5813;SDS011;2933;52.302;8.134;2022-08-19T03:08:51;10.23;;;6.60;;
5813;SDS011;2933;52.302;8.134;2022-08-19T03:13:53;9.97;;;6.70;;
5813;SDS011;2933;52.302;8.134;2022-08-19T03:18:55;9.33;;;6.70;;
5813;SDS011;2933;52.302;8.134;2022-08-19T03:24:02;10.40;;;7.40;;
5813;SDS011;2933;52.302;8.134;2022-08-19T03:29:06;12.80;;;7.77;;
5813;SDS011;2933;52.302;8.134;2022-08-19T03:34:11;13.50;;;6.80;;
5813;SDS011;2933;52.302;8.134;2022-08-19T03:39:15;9.57;;;7.70;;
5813;SDS011;2933;52.302;8.134;2022-08-19T03:44:18;10.07;;;6.30;;
5813;SDS011;2933;52.302;8.134;2022-08-19T03:49:22;9.70;;;7.33;;
5813;SDS011;2933;52.302;8.134;2022-08-19T03:54:26;8.90;;;6.40;;
5813;SDS011;2933;52.302;8.134;2022-08-19T03:59:33;13.33;;;7.23;;
5813;SDS011;2933;52.302;8.134;2022-08-19T04:04:37;11.93;;;7.00;;
5813;SDS011;2933;52.302;8.134;2022-08-19T04:09:42;14.30;;;7.40;;
5813;SDS011;2933;52.302;8.134;2022-08-19T04:14:44;11.63;;;7.60;;
5813;SDS011;2933;52.302;8.134;2022-08-19T04:19:46;7.60;;;6.27;;
5813;SDS011;2933;52.302;8.134;2022-08-19T04:24:48;8.87;;;6.47;;
5813;SDS011;2933;52.302;8.134;2022-08-19T04:29:50;9.50;;;6.57;;
5813;SDS011;2933;52.302;8.134;2022-08-19T04:34:55;13.90;;;7.33;;
5813;SDS011;2933;52.302;8.134;2022-08-19T04:39:57;11.87;;;7.17;;
5813;SDS011;2933;52.302;8.134;2022-08-19T04:45:16;12.83;;;6.77;;
5813;SDS011;2933;52.302;8.134;2022-08-19T04:50:18;11.87;;;7.37;;
5813;SDS011;2933;52.302;8.134;2022-08-19T04:55:21;9.43;;;6.60;;
5813;SDS011;2933;52.302;8.134;2022-08-19T05:00:25;12.37;;;7.60;;
5813;SDS011;2933;52.302;8.134;2022-08-19T05:05:27;8.10;;;6.87;;
5813;SDS011;2933;52.302;8.134;2022-08-19T05:10:30;9.47;;;6.97;;
5813;SDS011;2933;52.302;8.134;2022-08-19T05:15:31;10.17;;;7.70;;
5813;SDS011;2933;52.302;8.134;2022-08-19T05:20:33;9.83;;;7.10;;
5813;SDS011;2933;52.302;8.134;2022-08-19T05:25:53;18.37;;;10.07;;
5813;SDS011;2933;52.302;8.134;2022-08-19T05:30:55;16.17;;;8.73;;
5813;SDS011;2933;52.302;8.134;2022-08-19T05:35:56;14.60;;;9.57;;
5813;SDS011;2933;52.302;8.134;2022-08-19T05:41:00;14.60;;;9.33;;
5813;SDS011;2933;52.302;8.134;2022-08-19T05:46:01;14.53;;;9.40;;
5813;SDS011;2933;52.302;8.134;2022-08-19T05:51:03;15.47;;;10.77;;
5813;SDS011;2933;52.302;8.134;2022-08-19T05:56:08;12.60;;;8.90;;
5813;SDS011;2933;52.302;8.134;2022-08-19T06:01:12;15.17;;;8.80;;
5813;SDS011;2933;52.302;8.134;2022-08-19T06:06:16;14.00;;;8.73;;
5813;SDS011;2933;52.302;8.134;2022-08-19T06:11:21;13.73;;;9.97;;
5813;SDS011;2933;52.302;8.134;2022-08-19T06:16:24;13.57;;;9.60;;
5813;SDS011;2933;52.302;8.134;2022-08-19T06:21:27;15.20;;;9.80;;
5813;SDS011;2933;52.302;8.134;2022-08-19T06:26:32;13.90;;;10.03;;
5813;SDS011;2933;52.302;8.134;2022-08-19T06:31:34;19.63;;;10.80;;
5813;SDS011;2933;52.302;8.134;2022-08-19T06:36:37;13.60;;;9.67;;
5813;SDS011;2933;52.302;8.134;2022-08-19T06:41:44;15.27;;;9.57;;
5813;SDS011;2933;52.302;8.134;2022-08-19T06:46:47;15.73;;;9.07;;
5813;SDS011;2933;52.302;8.134;2022-08-19T06:51:49;13.53;;;8.20;;
5813;SDS011;2933;52.302;8.134;2022-08-19T06:56:53;10.20;;;7.83;;
5813;SDS011;2933;52.302;8.134;2022-08-19T07:01:55;8.13;;;6.73;;
5813;SDS011;2933;52.302;8.134;2022-08-19T07:06:58;11.80;;;7.43;;
5813;SDS011;2933;52.302;8.134;2022-08-19T07:12:03;10.07;;;6.60;;
5813;SDS011;2933;52.302;8.134;2022-08-19T07:17:08;5.70;;;5.20;;
5813;SDS011;2933;52.302;8.134;2022-08-19T07:22:12;12.63;;;6.70;;
5813;SDS011;2933;52.302;8.134;2022-08-19T07:27:15;9.87;;;6.33;;
5813;SDS011;2933;52.302;8.134;2022-08-19T07:32:17;12.83;;;6.70;;
5813;SDS011;2933;52.302;8.134;2022-08-19T07:37:18;9.23;;;5.90;;
5813;SDS011;2933;52.302;8.134;2022-08-19T07:42:21;12.70;;;6.20;;
5813;SDS011;2933;52.302;8.134;2022-08-19T07:47:23;11.10;;;6.80;;
5813;SDS011;2933;52.302;8.134;2022-08-19T07:52:24;6.90;;;6.07;;
5813;SDS011;2933;52.302;8.134;2022-08-19T07:57:27;7.40;;;6.07;;
5813;SDS011;2933;52.302;8.134;2022-08-19T08:02:29;8.87;;;6.23;;
5813;SDS011;2933;52.302;8.134;2022-08-19T08:07:30;10.83;;;5.77;;
5813;SDS011;2933;52.302;8.134;2022-08-19T08:12:51;6.53;;;4.87;;
5813;SDS011;2933;52.302;8.134;2022-08-19T08:17:55;6.53;;;4.60;;
5813;SDS011;2933;52.302;8.134;2022-08-19T08:22:57;4.23;;;3.90;;
5813;SDS011;2933;52.302;8.134;2022-08-19T08:28:18;4.37;;;3.23;;
5813;SDS011;2933;52.302;8.134;2022-08-19T08:33:21;3.90;;;3.60;;
5813;SDS011;2933;52.302;8.134;2022-08-19T08:38:24;3.30;;;3.00;;
5813;SDS011;2933;52.302;8.134;2022-08-19T08:43:27;3.40;;;3.20;;
5813;SDS011;2933;52.302;8.134;2022-08-19T08:48:34;3.70;;;3.27;;
5813;SDS011;2933;52.302;8.134;2022-08-19T08:53:39;4.13;;;3.27;;
5813;SDS011;2933;52.302;8.134;2022-08-19T08:58:46;3.80;;;3.50;;
5813;SDS011;2933;52.302;8.134;2022-08-19T09:03:52;3.57;;;3.27;;
5813;SDS011;2933;52.302;8.134;2022-08-19T09:08:55;4.17;;;3.77;;
5813;SDS011;2933;52.302;8.134;2022-08-19T09:14:07;4.13;;;3.00;;
5813;SDS011;2933;52.302;8.134;2022-08-19T09:19:14;2.63;;;2.43;;
5813;SDS011;2933;52.302;8.134;2022-08-19T09:24:17;2.90;;;2.43;;
5813;SDS011;2933;52.302;8.134;2022-08-19T09:29:20;2.70;;;2.60;;
5813;SDS011;2933;52.302;8.134;2022-08-19T09:34:21;2.27;;;2.13;;
5813;SDS011;2933;52.302;8.134;2022-08-19T09:39:23;2.23;;;2.13;;
5813;SDS011;2933;52.302;8.134;2022-08-19T09:44:26;3.00;;;2.80;;
5813;SDS011;2933;52.302;8.134;2022-08-19T09:49:27;3.20;;;2.90;;
5813;SDS011;2933;52.302;8.134;2022-08-19T09:54:29;20.03;;;3.03;;
5813;SDS011;2933;52.302;8.134;2022-08-19T09:59:32;2.10;;;2.00;;
5813;SDS011;2933;52.302;8.134;2022-08-19T10:04:34;2.43;;;2.20;;
5813;SDS011;2933;52.302;8.134;2022-08-19T10:09:53;6.30;;;2.50;;
5813;SDS011;2933;52.302;8.134;2022-08-19T10:14:56;2.57;;;2.20;;
5813;SDS011;2933;52.302;8.134;2022-08-19T10:19:58;3.20;;;2.97;;
5813;SDS011;2933;52.302;8.134;2022-08-19T10:24:59;2.53;;;2.33;;
5813;SDS011;2933;52.302;8.134;2022-08-19T10:30:02;5.03;;;2.10;;
5813;SDS011;2933;52.302;8.134;2022-08-19T10:35:05;3.03;;;2.30;;
5813;SDS011;2933;52.302;8.134;2022-08-19T10:40:08;2.10;;;2.00;;
5813;SDS011;2933;52.302;8.134;2022-08-19T10:45:13;2.27;;;2.07;;
5813;SDS011;2933;52.302;8.134;2022-08-19T10:50:14;2.13;;;2.03;;
5813;SDS011;2933;52.302;8.134;2022-08-19T10:55:39;2.77;;;1.97;;
5813;SDS011;2933;52.302;8.134;2022-08-19T11:01:00;2.50;;;2.40;;
5813;SDS011;2933;52.302;8.134;2022-08-19T11:06:02;2.22;;;2.13;;
5813;SDS011;2933;52.302;8.134;2022-08-19T11:11:06;2.90;;;2.67;;
5813;SDS011;2933;52.302;8.134;2022-08-19T11:16:11;2.60;;;1.97;;
5813;SDS011;2933;52.302;8.134;2022-08-19T11:21:16;1.90;;;1.80;;
5813;SDS011;2933;52.302;8.134;2022-08-19T11:26:20;2.40;;;1.80;;
5813;SDS011;2933;52.302;8.134;2022-08-19T11:31:25;2.10;;;1.97;;
5813;SDS011;2933;52.302;8.134;2022-08-19T11:36:28;2.93;;;2.00;;
5813;SDS011;2933;52.302;8.134;2022-08-19T11:41:44;2.10;;;2.00;;
5813;SDS011;2933;52.302;8.134;2022-08-19T11:46:54;1.90;;;1.80;;
5813;SDS011;2933;52.302;8.134;2022-08-19T11:52:04;1.60;;;1.50;;
5813;SDS011;2933;52.302;8.134;2022-08-19T11:57:06;1.90;;;1.80;;
5813;SDS011;2933;52.302;8.134;2022-08-19T12:02:10;2.27;;;2.17;;
5813;SDS011;2933;52.302;8.134;2022-08-19T12:07:11;2.20;;;2.10;;
5813;SDS011;2933;52.302;8.134;2022-08-19T12:12:13;1.60;;;1.60;;
5813;SDS011;2933;52.302;8.134;2022-08-19T12:17:16;3.77;;;2.23;;
5813;SDS011;2933;52.302;8.134;2022-08-19T12:22:17;2.03;;;1.80;;
5813;SDS011;2933;52.302;8.134;2022-08-19T12:27:20;1.70;;;1.60;;
5813;SDS011;2933;52.302;8.134;2022-08-19T12:32:23;2.10;;;1.90;;
5813;SDS011;2933;52.302;8.134;2022-08-19T12:37:26;2.10;;;1.77;;
5813;SDS011;2933;52.302;8.134;2022-08-19T12:42:28;2.00;;;1.90;;
5813;SDS011;2933;52.302;8.134;2022-08-19T12:47:31;2.07;;;1.87;;
5813;SDS011;2933;52.302;8.134;2022-08-19T12:52:33;2.23;;;2.13;;
5813;SDS011;2933;52.302;8.134;2022-08-19T12:57:36;1.90;;;1.80;;
5813;SDS011;2933;52.302;8.134;2022-08-19T13:02:41;2.27;;;1.90;;
5813;SDS011;2933;52.302;8.134;2022-08-19T13:07:44;2.10;;;2.00;;
5813;SDS011;2933;52.302;8.134;2022-08-19T13:12:46;2.20;;;1.97;;
5813;SDS011;2933;52.302;8.134;2022-08-19T13:17:51;2.73;;;2.13;;
5813;SDS011;2933;52.302;8.134;2022-08-19T13:22:55;1.80;;;1.70;;
5813;SDS011;2933;52.302;8.134;2022-08-19T13:27:58;1.87;;;1.77;;
5813;SDS011;2933;52.302;8.134;2022-08-19T13:33:02;2.07;;;1.97;;
5813;SDS011;2933;52.302;8.134;2022-08-19T13:38:14;1.90;;;1.80;;
5813;SDS011;2933;52.302;8.134;2022-08-19T13:43:18;2.27;;;2.13;;
5813;SDS011;2933;52.302;8.134;2022-08-19T13:48:23;2.03;;;1.93;;
5813;SDS011;2933;52.302;8.134;2022-08-19T13:53:26;2.10;;;2.00;;
5813;SDS011;2933;52.302;8.134;2022-08-19T13:58:28;2.00;;;1.93;;
5813;SDS011;2933;52.302;8.134;2022-08-19T14:03:33;2.10;;;2.00;;
5813;SDS011;2933;52.302;8.134;2022-08-19T14:08:35;2.20;;;2.10;;
5813;SDS011;2933;52.302;8.134;2022-08-19T14:13:39;2.60;;;2.10;;
5813;SDS011;2933;52.302;8.134;2022-08-19T14:18:43;2.00;;;1.90;;
5813;SDS011;2933;52.302;8.134;2022-08-19T14:23:45;2.37;;;2.27;;
5813;SDS011;2933;52.302;8.134;2022-08-19T14:28:47;2.40;;;2.30;;
5813;SDS011;2933;52.302;8.134;2022-08-19T14:33:50;1.80;;;1.70;;
5813;SDS011;2933;52.302;8.134;2022-08-19T14:38:52;1.90;;;1.73;;
5813;SDS011;2933;52.302;8.134;2022-08-19T14:43:54;2.00;;;1.90;;
5813;SDS011;2933;52.302;8.134;2022-08-19T14:48:57;2.30;;;2.20;;
5813;SDS011;2933;52.302;8.134;2022-08-19T14:53:59;2.50;;;2.40;;
5813;SDS011;2933;52.302;8.134;2022-08-19T14:59:00;2.60;;;2.50;;
5813;SDS011;2933;52.302;8.134;2022-08-19T15:04:03;2.40;;;2.30;;
5813;SDS011;2933;52.302;8.134;2022-08-19T15:09:05;2.47;;;2.37;;
5813;SDS011;2933;52.302;8.134;2022-08-19T15:14:07;3.00;;;2.40;;
5813;SDS011;2933;52.302;8.134;2022-08-19T15:19:10;2.70;;;2.60;;
5813;SDS011;2933;52.302;8.134;2022-08-19T15:24:12;2.67;;;2.57;;
5813;SDS011;2933;52.302;8.134;2022-08-19T15:29:13;5.50;;;2.97;;
5813;SDS011;2933;52.302;8.134;2022-08-19T15:34:17;1.80;;;1.70;;
5813;SDS011;2933;52.302;8.134;2022-08-19T15:39:18;2.93;;;2.00;;
5813;SDS011;2933;52.302;8.134;2022-08-19T15:44:21;2.20;;;2.10;;
5813;SDS011;2933;52.302;8.134;2022-08-19T15:49:24;2.50;;;2.40;;
5813;SDS011;2933;52.302;8.134;2022-08-19T15:54:25;2.27;;;2.00;;
5813;SDS011;2933;52.302;8.134;2022-08-19T15:59:27;2.23;;;2.13;;
5813;SDS011;2933;52.302;8.134;2022-08-19T16:05:03;6.70;;;3.27;;
5813;SDS011;2933;52.302;8.134;2022-08-19T16:10:25;3.67;;;3.47;;
5813;SDS011;2933;52.302;8.134;2022-08-19T16:15:27;3.33;;;3.07;;
5813;SDS011;2933;52.302;8.134;2022-08-19T16:20:32;4.17;;;3.97;;
5813;SDS011;2933;52.302;8.134;2022-08-19T16:25:34;4.00;;;3.70;;
5813;SDS011;2933;52.302;8.134;2022-08-19T16:30:36;4.80;;;3.27;;
5813;SDS011;2933;52.302;8.134;2022-08-19T16:35:40;3.90;;;3.60;;
5813;SDS011;2933;52.302;8.134;2022-08-19T16:40:42;4.60;;;3.70;;
5813;SDS011;2933;52.302;8.134;2022-08-19T16:45:43;4.30;;;4.00;;
5813;SDS011;2933;52.302;8.134;2022-08-19T16:50:46;4.60;;;4.30;;
5813;SDS011;2933;52.302;8.134;2022-08-19T16:55:48;4.23;;;3.93;;
5813;SDS011;2933;52.302;8.134;2022-08-19T17:00:52;4.20;;;3.80;;
5813;SDS011;2933;52.302;8.134;2022-08-19T17:05:56;4.73;;;4.40;;
5813;SDS011;2933;52.302;8.134;2022-08-19T17:11:01;4.73;;;4.43;;
5813;SDS011;2933;52.302;8.134;2022-08-19T17:16:04;5.63;;;4.53;;
5813;SDS011;2933;52.302;8.134;2022-08-19T17:21:07;4.97;;;4.30;;
5813;SDS011;2933;52.302;8.134;2022-08-19T17:26:11;7.90;;;4.20;;
5813;SDS011;2933;52.302;8.134;2022-08-19T17:31:15;4.70;;;4.10;;
5813;SDS011;2933;52.302;8.134;2022-08-19T17:36:18;3.90;;;3.63;;
5813;SDS011;2933;52.302;8.134;2022-08-19T17:41:22;3.93;;;3.63;;
5813;SDS011;2933;52.302;8.134;2022-08-19T17:46:24;4.30;;;4.00;;
5813;SDS011;2933;52.302;8.134;2022-08-19T17:51:38;4.30;;;4.00;;
5813;SDS011;2933;52.302;8.134;2022-08-19T17:56:42;3.87;;;3.70;;
5813;SDS011;2933;52.302;8.134;2022-08-19T18:01:45;4.43;;;4.10;;
5813;SDS011;2933;52.302;8.134;2022-08-19T18:06:49;6.03;;;4.53;;
5813;SDS011;2933;52.302;8.134;2022-08-19T18:11:51;6.50;;;3.43;;
5813;SDS011;2933;52.302;8.134;2022-08-19T18:16:55;5.33;;;3.90;;
5813;SDS011;2933;52.302;8.134;2022-08-19T18:21:59;4.47;;;4.07;;
5813;SDS011;2933;52.302;8.134;2022-08-19T18:27:01;6.60;;;3.93;;
5813;SDS011;2933;52.302;8.134;2022-08-19T18:32:03;3.63;;;3.33;;
5813;SDS011;2933;52.302;8.134;2022-08-19T18:37:06;3.73;;;3.43;;
5813;SDS011;2933;52.302;8.134;2022-08-19T18:42:12;4.10;;;3.80;;
5813;SDS011;2933;52.302;8.134;2022-08-19T18:47:32;7.43;;;4.23;;
5813;SDS011;2933;52.302;8.134;2022-08-19T18:52:52;5.83;;;3.80;;
5813;SDS011;2933;52.302;8.134;2022-08-19T18:57:54;6.57;;;3.53;;
5813;SDS011;2933;52.302;8.134;2022-08-19T19:02:55;4.50;;;3.50;;
5813;SDS011;2933;52.302;8.134;2022-08-19T19:07:58;3.90;;;3.70;;
5813;SDS011;2933;52.302;8.134;2022-08-19T19:13:00;6.60;;;4.00;;
5813;SDS011;2933;52.302;8.134;2022-08-19T19:18:02;6.77;;;4.90;;
5813;SDS011;2933;52.302;8.134;2022-08-19T19:23:05;4.33;;;4.03;;
5813;SDS011;2933;52.302;8.134;2022-08-19T19:28:06;4.60;;;4.20;;
5813;SDS011;2933;52.302;8.134;2022-08-19T19:33:08;4.60;;;4.20;;
5813;SDS011;2933;52.302;8.134;2022-08-19T19:38:13;4.20;;;3.90;;
5813;SDS011;2933;52.302;8.134;2022-08-19T19:43:15;4.80;;;4.30;;
5813;SDS011;2933;52.302;8.134;2022-08-19T19:48:17;6.57;;;4.73;;
5813;SDS011;2933;52.302;8.134;2022-08-19T19:53:20;5.23;;;4.73;;
5813;SDS011;2933;52.302;8.134;2022-08-19T19:58:23;7.00;;;6.00;;
5813;SDS011;2933;52.302;8.134;2022-08-19T20:03:25;6.90;;;5.70;;
5813;SDS011;2933;52.302;8.134;2022-08-19T20:08:29;6.83;;;6.23;;
5813;SDS011;2933;52.302;8.134;2022-08-19T20:13:48;6.63;;;6.03;;
5813;SDS011;2933;52.302;8.134;2022-08-19T20:18:49;9.67;;;7.20;;
5813;SDS011;2933;52.302;8.134;2022-08-19T20:23:53;7.83;;;6.93;;
5813;SDS011;2933;52.302;8.134;2022-08-19T20:28:55;6.80;;;6.20;;
5813;SDS011;2933;52.302;8.134;2022-08-19T20:34:01;12.00;;;7.20;;
5813;SDS011;2933;52.302;8.134;2022-08-19T20:39:05;11.93;;;7.73;;
5813;SDS011;2933;52.302;8.134;2022-08-19T20:44:07;13.73;;;7.87;;
5813;SDS011;2933;52.302;8.134;2022-08-19T20:49:09;11.50;;;8.40;;
5813;SDS011;2933;52.302;8.134;2022-08-19T20:54:12;11.63;;;8.37;;
5813;SDS011;2933;52.302;8.134;2022-08-19T20:59:13;13.40;;;8.90;;
5813;SDS011;2933;52.302;8.134;2022-08-19T21:04:15;13.00;;;8.07;;
5813;SDS011;2933;52.302;8.134;2022-08-19T21:09:18;13.63;;;8.60;;
5813;SDS011;2933;52.302;8.134;2022-08-19T21:14:19;14.03;;;9.17;;
5813;SDS011;2933;52.302;8.134;2022-08-19T21:19:22;15.10;;;9.10;;
5813;SDS011;2933;52.302;8.134;2022-08-19T21:24:25;17.23;;;9.70;;
5813;SDS011;2933;52.302;8.134;2022-08-19T21:29:26;14.83;;;9.50;;
5813;SDS011;2933;52.302;8.134;2022-08-19T21:34:31;15.80;;;10.50;;
5813;SDS011;2933;52.302;8.134;2022-08-19T21:39:33;19.30;;;10.47;;
5813;SDS011;2933;52.302;8.134;2022-08-19T21:44:35;18.13;;;11.10;;
5813;SDS011;2933;52.302;8.134;2022-08-19T21:49:37;16.90;;;11.90;;
5813;SDS011;2933;52.302;8.134;2022-08-19T21:54:41;20.23;;;10.97;;
5813;SDS011;2933;52.302;8.134;2022-08-19T21:59:42;21.53;;;12.63;;
5813;SDS011;2933;52.302;8.134;2022-08-19T22:04:44;19.27;;;11.63;;
5813;SDS011;2933;52.302;8.134;2022-08-19T22:09:48;22.47;;;11.50;;
5813;SDS011;2933;52.302;8.134;2022-08-19T22:14:50;24.27;;;13.50;;
5813;SDS011;2933;52.302;8.134;2022-08-19T22:19:53;22.63;;;12.80;;
5813;SDS011;2933;52.302;8.134;2022-08-19T22:25:04;18.40;;;10.17;;
5813;SDS011;2933;52.302;8.134;2022-08-19T22:30:14;13.93;;;10.30;;
5813;SDS011;2933;52.302;8.134;2022-08-19T22:35:18;15.63;;;10.50;;
5813;SDS011;2933;52.302;8.134;2022-08-19T22:40:23;17.17;;;9.33;;
5813;SDS011;2933;52.302;8.134;2022-08-19T22:45:26;16.67;;;9.63;;
5813;SDS011;2933;52.302;8.134;2022-08-19T22:50:28;15.40;;;9.30;;
5813;SDS011;2933;52.302;8.134;2022-08-19T22:55:32;13.57;;;9.80;;
5813;SDS011;2933;52.302;8.134;2022-08-19T23:00:34;11.57;;;8.63;;
5813;SDS011;2933;52.302;8.134;2022-08-19T23:05:36;14.27;;;8.60;;
5813;SDS011;2933;52.302;8.134;2022-08-19T23:10:39;13.50;;;8.13;;
5813;SDS011;2933;52.302;8.134;2022-08-19T23:15:40;16.53;;;8.60;;
5813;SDS011;2933;52.302;8.134;2022-08-19T23:20:43;12.97;;;7.67;;
5813;SDS011;2933;52.302;8.134;2022-08-19T23:25:47;15.33;;;9.57;;
5813;SDS011;2933;52.302;8.134;2022-08-19T23:30:49;16.27;;;9.07;;
5813;SDS011;2933;52.302;8.134;2022-08-19T23:35:53;11.70;;;8.20;;
5813;SDS011;2933;52.302;8.134;2022-08-19T23:40:58;13.43;;;8.47;;
5813;SDS011;2933;52.302;8.134;2022-08-19T23:46:02;29.10;;;9.90;;
5813;SDS011;2933;52.302;8.134;2022-08-19T23:51:06;15.70;;;10.27;;
5813;SDS011;2933;52.302;8.134;2022-08-19T23:56:11;16.33;;;10.00;;
